createdAt,value
2023-01-07T00:01:02.419Z,-5.94
2023-01-07T00:02:05.873Z,-5.91
2023-01-07T00:03:08.797Z,-5.88
2023-01-07T00:04:12.414Z,-5.97
2023-01-07T00:05:16.682Z,-5.90
2023-01-07T00:06:24.743Z,-5.91
2023-01-07T00:07:27.001Z,-5.82
2023-01-07T00:08:31.668Z,-5.81
2023-01-07T00:09:34.643Z,-5.89
2023-01-07T00:10:40.650Z,-5.93
2023-01-07T00:11:46.484Z,-5.91
2023-01-07T00:12:51.696Z,-6.09
2023-01-07T00:13:55.560Z,-6.11
2023-01-07T00:15:00.309Z,-6.28
2023-01-07T00:16:07.740Z,-6.35
2023-01-07T00:17:10.663Z,-6.33
2023-01-07T00:18:14.104Z,-6.23
2023-01-07T00:19:16.528Z,-6.16
2023-01-07T00:20:20.032Z,-6.08
2023-01-07T00:21:24.784Z,-6.00
2023-01-07T00:22:28.185Z,-5.97
2023-01-07T00:23:32.213Z,-6.00
2023-01-07T00:24:36.528Z,-5.95
2023-01-07T00:25:39.855Z,-6.00
2023-01-07T00:26:44.381Z,-5.95
2023-01-07T00:27:47.471Z,-5.92
2023-01-07T00:28:52.292Z,-5.93
2023-01-07T00:29:56.168Z,-5.90
2023-01-07T00:31:04.453Z,-5.94
2023-01-07T00:32:07.980Z,-5.90
2023-01-07T00:33:13.931Z,-6.04
2023-01-07T00:34:19.031Z,-6.03
2023-01-07T00:35:23.722Z,-5.93
2023-01-07T00:36:28.788Z,-5.90
2023-01-07T00:37:50.214Z,-5.84
2023-01-07T00:38:57.109Z,-5.94
2023-01-07T00:39:59.371Z,-6.16
2023-01-07T00:41:02.659Z,-6.10
2023-01-07T00:42:24.741Z,-6.17
2023-01-07T00:43:27.737Z,-6.11
2023-01-07T00:44:31.997Z,-6.12
2023-01-07T00:45:36.819Z,-6.15
2023-01-07T00:46:40.317Z,-6.27
2023-01-07T00:47:45.936Z,-6.29
2023-01-07T00:48:48.913Z,-6.33
2023-01-07T00:49:53.774Z,-6.18
2023-01-07T00:51:05.119Z,-6.22
2023-01-07T00:52:09.858Z,-6.15
2023-01-07T00:53:13.490Z,-6.09
2023-01-07T00:54:15.943Z,-6.09
2023-01-07T00:55:21.065Z,-6.11
2023-01-07T00:56:25.359Z,-6.07
2023-01-07T00:57:29.072Z,-6.09
2023-01-07T00:58:31.312Z,-6.07
2023-01-07T00:59:36.093Z,-6.01
2023-01-07T01:00:41.122Z,-6.11
2023-01-07T01:01:44.371Z,-6.08
2023-01-07T01:02:48.580Z,-6.02
2023-01-07T01:03:53.725Z,-6.07
2023-01-07T01:04:57.325Z,-6.17
2023-01-07T01:06:04.318Z,-6.20
2023-01-07T01:07:09.221Z,-6.14
2023-01-07T01:08:12.534Z,-6.36
2023-01-07T01:09:18.794Z,-6.42
2023-01-07T01:10:22.419Z,-6.24
2023-01-07T01:11:25.588Z,-6.11
2023-01-07T01:12:29.736Z,-6.09
2023-01-07T01:13:32.929Z,-6.15
2023-01-07T01:14:35.175Z,-6.12
2023-01-07T01:15:40.439Z,-6.12
2023-01-07T01:16:44.003Z,-6.22
2023-01-07T01:17:47.461Z,-6.24
2023-01-07T01:18:51.081Z,-6.00
2023-01-07T01:19:54.482Z,-5.79
2023-01-07T01:20:59.759Z,-5.64
2023-01-07T01:22:04.259Z,-5.58
2023-01-07T01:23:10.426Z,-5.71
2023-01-07T01:24:13.083Z,-5.60
2023-01-07T01:25:17.336Z,-5.77
2023-01-07T01:26:22.111Z,-5.73
2023-01-07T01:27:26.630Z,-5.69
2023-01-07T01:28:29.928Z,-5.67
2023-01-07T01:29:33.443Z,-5.54
2023-01-07T01:30:35.900Z,-5.65
2023-01-07T01:31:40.351Z,-5.74
2023-01-07T01:32:45.836Z,-6.05
2023-01-07T01:33:51.935Z,-6.18
2023-01-07T01:34:55.876Z,-6.42
2023-01-07T01:35:59.482Z,-6.43
2023-01-07T01:37:05.338Z,-6.34
2023-01-07T01:38:08.612Z,-6.31
2023-01-07T01:39:11.981Z,-6.53
2023-01-07T01:40:16.312Z,-6.35
2023-01-07T01:41:19.935Z,-6.21
2023-01-07T01:42:28.972Z,-6.09
2023-01-07T01:43:37.807Z,-6.15
2023-01-07T01:44:52.275Z,-6.17
2023-01-07T01:46:05.086Z,-6.19
2023-01-07T01:47:15.942Z,-6.21
2023-01-07T01:48:20.463Z,-6.12
2023-01-07T01:49:28.326Z,-6.16
2023-01-07T01:50:36.962Z,-6.09
2023-01-07T01:51:44.777Z,-6.22
2023-01-07T01:52:49.806Z,-6.26
2023-01-07T01:53:53.837Z,-6.19
2023-01-07T01:54:59.335Z,-6.18
2023-01-07T01:56:06.076Z,-6.07
2023-01-07T01:57:10.528Z,-6.09
2023-01-07T01:58:15.706Z,-6.06
2023-01-07T01:59:22.287Z,-6.05
2023-01-07T02:00:28.955Z,-6.04
2023-01-07T02:01:33.295Z,-5.98
2023-01-07T02:02:41.741Z,-5.96
2023-01-07T02:03:44.700Z,-6.11
2023-01-07T02:04:49.842Z,-6.24
2023-01-07T02:05:52.244Z,-6.34
2023-01-07T02:07:01.710Z,-6.37
2023-01-07T02:08:06.784Z,-6.26
2023-01-07T02:09:12.481Z,-6.29
2023-01-07T02:10:23.501Z,-6.21
2023-01-07T02:11:35.768Z,-6.25
2023-01-07T02:12:46.200Z,-6.16
2023-01-07T02:13:57.610Z,-6.23
2023-01-07T02:15:08.006Z,-6.14
2023-01-07T02:16:19.205Z,-6.16
2023-01-07T02:17:25.356Z,-6.20
2023-01-07T02:18:30.534Z,-6.12
2023-01-07T02:19:38.748Z,-6.14
2023-01-07T02:21:02.301Z,-6.27
2023-01-07T02:22:11.661Z,-6.26
2023-01-07T02:23:20.586Z,-6.32
2023-01-07T02:24:25.633Z,-6.35
2023-01-07T02:25:37.948Z,-6.47
2023-01-07T02:26:51.859Z,-6.47
2023-01-07T02:28:01.151Z,-6.31
2023-01-07T02:29:15.229Z,-6.33
2023-01-07T02:30:33.324Z,-6.31
2023-01-07T02:31:43.678Z,-6.35
2023-01-07T02:32:57.587Z,-6.25
2023-01-07T02:34:08.078Z,-6.25
2023-01-07T02:35:14.517Z,-6.27
2023-01-07T02:36:22.810Z,-6.36
2023-01-07T02:37:28.113Z,-6.31
2023-01-07T02:38:36.198Z,-6.28
2023-01-07T02:39:41.687Z,-6.37
2023-01-07T02:40:52.927Z,-6.41
2023-01-07T02:42:04.073Z,-6.34
2023-01-07T02:43:12.835Z,-6.17
2023-01-07T02:44:20.037Z,-6.12
2023-01-07T02:45:34.860Z,-6.23
2023-01-07T02:46:43.443Z,-6.30
2023-01-07T02:47:56.769Z,-6.25
2023-01-07T02:49:00.490Z,-6.17
2023-01-07T02:50:05.337Z,-6.27
2023-01-07T02:51:09.712Z,-6.15
2023-01-07T02:52:16.016Z,-6.00
2023-01-07T02:53:19.308Z,-6.07
2023-01-07T02:54:27.236Z,-6.08
2023-01-07T02:55:34.887Z,-6.15
2023-01-07T02:56:43.927Z,-6.20
2023-01-07T02:57:58.264Z,-6.39
2023-01-07T02:59:07.490Z,-6.49
2023-01-07T03:00:19.034Z,-6.36
2023-01-07T03:01:41.299Z,-6.49
2023-01-07T03:02:45.521Z,-6.48
2023-01-07T03:03:55.436Z,-6.34
2023-01-07T03:05:02.350Z,-6.21
2023-01-07T03:06:13.268Z,-6.31
2023-01-07T03:07:34.443Z,-6.30
2023-01-07T03:08:50.151Z,-6.19
2023-01-07T03:10:06.949Z,-6.21
2023-01-07T03:11:11.993Z,-6.26
2023-01-07T03:12:26.388Z,-6.12
2023-01-07T03:13:40.427Z,-6.22
2023-01-07T03:14:54.275Z,-6.35
2023-01-07T03:15:59.333Z,-6.29
2023-01-07T03:17:05.565Z,-6.16
2023-01-07T03:18:19.815Z,-6.17
2023-01-07T03:19:33.988Z,-6.05
2023-01-07T03:20:39.267Z,-6.05
2023-01-07T03:21:42.769Z,-5.95
2023-01-07T03:22:47.745Z,-6.06
2023-01-07T03:23:53.887Z,-6.03
2023-01-07T03:24:57.989Z,-6.05
2023-01-07T03:26:02.753Z,-6.07
2023-01-07T03:27:12.996Z,-6.13
2023-01-07T03:28:17.597Z,-6.17
2023-01-07T03:29:21.710Z,-6.27
2023-01-07T03:30:27.393Z,-6.32
2023-01-07T03:31:33.216Z,-6.40
2023-01-07T03:32:40.904Z,-6.36
2023-01-07T03:33:56.752Z,-6.33
2023-01-07T03:35:00.448Z,-6.36
2023-01-07T03:36:04.464Z,-6.36
2023-01-07T03:37:09.754Z,-6.18
2023-01-07T03:38:13.906Z,-6.27
2023-01-07T03:39:18.395Z,-6.32
2023-01-07T03:40:22.177Z,-6.25
2023-01-07T03:41:46.719Z,-6.25
2023-01-07T03:42:50.289Z,-6.25
2023-01-07T03:43:55.541Z,-6.32
2023-01-07T03:45:01.260Z,-6.54
2023-01-07T03:46:05.628Z,-6.57
2023-01-07T03:47:09.281Z,-6.53
2023-01-07T03:48:12.797Z,-6.44
2023-01-07T03:49:16.198Z,-6.45
2023-01-07T03:50:19.690Z,-6.49
2023-01-07T03:51:22.379Z,-6.49
2023-01-07T03:52:27.274Z,-6.41
2023-01-07T03:53:30.739Z,-6.33
2023-01-07T03:54:35.187Z,-6.37
2023-01-07T03:55:39.212Z,-6.36
2023-01-07T03:56:43.347Z,-6.36
2023-01-07T03:57:46.958Z,-6.32
2023-01-07T03:58:50.353Z,-6.27
2023-01-07T03:59:57.017Z,-6.33
2023-01-07T04:01:04.472Z,-6.35
2023-01-07T04:02:09.276Z,-6.31
2023-01-07T04:03:13.251Z,-6.29
2023-01-07T04:04:17.707Z,-6.23
2023-01-07T04:05:20.984Z,-6.45
2023-01-07T04:06:25.019Z,-6.42
2023-01-07T04:07:30.644Z,-6.44
2023-01-07T04:08:34.901Z,-6.50
2023-01-07T04:09:38.877Z,-6.48
2023-01-07T04:10:42.800Z,-6.39
2023-01-07T04:11:45.458Z,-6.23
2023-01-07T04:12:49.504Z,-6.30
2023-01-07T04:13:52.963Z,-6.28
2023-01-07T04:14:57.872Z,-6.46
2023-01-07T04:16:03.565Z,-6.43
2023-01-07T04:17:07.174Z,-6.34
2023-01-07T04:18:10.363Z,-6.31
2023-01-07T04:19:14.182Z,-6.30
2023-01-07T04:20:17.200Z,-6.35
2023-01-07T04:21:21.818Z,-6.48
2023-01-07T04:22:26.039Z,-6.56
2023-01-07T04:23:29.977Z,-6.66
2023-01-07T04:24:34.621Z,-6.57
2023-01-07T04:25:38.059Z,-6.59
2023-01-07T04:26:43.103Z,-6.52
2023-01-07T04:27:46.087Z,-6.36
2023-01-07T04:28:49.592Z,-6.37
2023-01-07T04:29:52.155Z,-6.37
2023-01-07T04:31:01.607Z,-6.44
2023-01-07T04:32:05.846Z,-6.45
2023-01-07T04:33:08.631Z,-6.39
2023-01-07T04:34:13.390Z,-6.50
2023-01-07T04:35:17.202Z,-6.57
2023-01-07T04:36:20.184Z,-6.61
2023-01-07T04:37:24.106Z,-6.48
2023-01-07T04:38:27.390Z,-6.45
2023-01-07T04:39:31.279Z,-6.50
2023-01-07T04:40:35.256Z,-6.33
2023-01-07T04:41:39.501Z,-6.40
2023-01-07T04:42:43.606Z,-6.36
2023-01-07T04:43:47.071Z,-6.39
2023-01-07T04:44:50.411Z,-6.50
2023-01-07T04:45:53.724Z,-6.45
2023-01-07T04:46:57.233Z,-6.41
2023-01-07T04:48:00.920Z,-6.30
2023-01-07T04:49:07.309Z,-6.24
2023-01-07T04:50:10.662Z,-6.28
2023-01-07T04:51:14.045Z,-6.49
2023-01-07T04:52:17.761Z,-6.48
2023-01-07T04:53:21.590Z,-6.50
2023-01-07T04:54:27.173Z,-6.58
2023-01-07T04:55:32.053Z,-6.45
2023-01-07T04:56:35.548Z,-6.35
2023-01-07T04:57:39.687Z,-6.31
2023-01-07T04:58:43.503Z,-6.35
2023-01-07T04:59:46.786Z,-6.53
2023-01-07T05:00:52.008Z,-6.64
2023-01-07T05:01:56.206Z,-6.56
2023-01-07T05:02:59.715Z,-6.64
2023-01-07T05:04:04.161Z,-6.73
2023-01-07T05:05:09.742Z,-6.79
2023-01-07T05:06:17.399Z,-6.75
2023-01-07T05:07:21.745Z,-6.75
2023-01-07T05:08:26.110Z,-6.65
2023-01-07T05:09:28.593Z,-6.66
2023-01-07T05:10:33.863Z,-6.60
2023-01-07T05:11:37.467Z,-6.51
2023-01-07T05:12:40.336Z,-6.49
2023-01-07T05:13:45.241Z,-6.51
2023-01-07T05:14:50.387Z,-6.68
2023-01-07T05:15:54.448Z,-6.75
2023-01-07T05:16:57.241Z,-6.88
2023-01-07T05:18:04.869Z,-6.88
2023-01-07T05:19:10.583Z,-6.98
2023-01-07T05:20:15.947Z,-6.98
2023-01-07T05:21:20.205Z,-7.07
2023-01-07T05:22:24.831Z,-7.02
2023-01-07T05:23:29.220Z,-6.98
2023-01-07T05:24:34.569Z,-7.01
2023-01-07T05:25:38.283Z,-6.94
2023-01-07T05:26:41.577Z,-6.84
2023-01-07T05:27:48.234Z,-6.69
2023-01-07T05:28:52.582Z,-6.75
2023-01-07T05:29:56.278Z,-6.82
2023-01-07T05:31:01.514Z,-6.83
2023-01-07T05:32:09.147Z,-6.84
2023-01-07T05:33:13.814Z,-6.93
2023-01-07T05:34:18.439Z,-6.91
2023-01-07T05:35:22.872Z,-6.97
2023-01-07T05:36:26.398Z,-6.94
2023-01-07T05:37:30.429Z,-6.79
2023-01-07T05:38:33.501Z,-6.80
2023-01-07T05:39:37.635Z,-6.85
2023-01-07T05:40:44.690Z,-6.85
2023-01-07T05:41:48.603Z,-7.02
2023-01-07T05:42:53.578Z,-7.08
2023-01-07T05:43:56.800Z,-6.95
2023-01-07T05:45:00.380Z,-6.95
2023-01-07T05:46:06.434Z,-6.91
2023-01-07T05:47:09.690Z,-7.11
2023-01-07T05:48:14.451Z,-7.22
2023-01-07T05:49:17.376Z,-7.23
2023-01-07T05:50:20.733Z,-7.11
2023-01-07T05:51:24.610Z,-7.08
2023-01-07T05:52:29.859Z,-7.06
2023-01-07T05:53:32.477Z,-6.99
2023-01-07T05:54:35.754Z,-6.86
2023-01-07T05:55:40.658Z,-6.87
2023-01-07T05:56:43.952Z,-6.96
2023-01-07T05:57:48.604Z,-6.92
2023-01-07T05:58:53.964Z,-6.87
2023-01-07T05:59:56.449Z,-6.82
2023-01-07T06:01:01.862Z,-6.85
2023-01-07T06:02:05.449Z,-6.86
2023-01-07T06:03:09.739Z,-7.07
2023-01-07T06:04:13.185Z,-6.95
2023-01-07T06:05:18.983Z,-6.89
2023-01-07T06:06:23.975Z,-6.85
2023-01-07T06:07:27.201Z,-7.00
2023-01-07T06:08:30.968Z,-6.99
2023-01-07T06:09:34.678Z,-6.90
2023-01-07T06:10:38.078Z,-6.98
2023-01-07T06:11:42.315Z,-7.02
2023-01-07T06:12:48.866Z,-6.98
2023-01-07T06:13:52.568Z,-6.92
2023-01-07T06:14:58.167Z,-6.94
2023-01-07T06:16:04.623Z,-6.89
2023-01-07T06:17:09.245Z,-6.95
2023-01-07T06:18:13.792Z,-6.81
2023-01-07T06:19:17.285Z,-7.02
2023-01-07T06:20:22.246Z,-7.15
2023-01-07T06:21:27.738Z,-7.29
2023-01-07T06:22:31.152Z,-7.37
2023-01-07T06:23:34.241Z,-7.26
2023-01-07T06:24:37.643Z,-7.30
2023-01-07T06:25:41.144Z,-7.34
2023-01-07T06:26:44.535Z,-7.22
2023-01-07T06:27:48.573Z,-7.16
2023-01-07T06:28:51.336Z,-7.14
2023-01-07T06:29:54.852Z,-7.11
2023-01-07T06:32:02.819Z,-6.93
2023-01-07T06:33:06.998Z,-6.81
2023-01-07T06:34:10.437Z,-6.87
2023-01-07T06:35:14.288Z,-6.98
2023-01-07T06:36:20.323Z,-7.02
2023-01-07T06:37:23.030Z,-7.11
2023-01-07T06:38:26.339Z,-6.95
2023-01-07T06:39:31.329Z,-6.91
2023-01-07T06:40:34.592Z,-6.81
2023-01-07T06:41:39.886Z,-6.77
2023-01-07T06:42:43.174Z,-6.73
2023-01-07T06:43:47.564Z,-6.93
2023-01-07T06:44:51.011Z,-7.05
2023-01-07T06:45:54.686Z,-7.07
2023-01-07T06:46:58.577Z,-7.06
2023-01-07T06:48:01.840Z,-6.92
2023-01-07T06:49:04.516Z,-6.86
2023-01-07T06:50:08.220Z,-6.65
2023-01-07T06:51:11.469Z,-6.64
2023-01-07T06:52:15.870Z,-6.55
2023-01-07T06:53:19.131Z,-6.53
2023-01-07T06:54:22.210Z,-6.67
2023-01-07T06:55:25.427Z,-6.63
2023-01-07T06:56:28.001Z,-6.65
2023-01-07T06:57:32.372Z,-6.64
2023-01-07T06:58:35.646Z,-6.77
2023-01-07T06:59:40.916Z,-6.77
2023-01-07T07:00:44.433Z,-6.70
2023-01-07T07:01:47.813Z,-6.47
2023-01-07T07:02:51.418Z,-6.42
2023-01-07T07:03:57.562Z,-6.47
2023-01-07T07:05:00.855Z,-6.57
2023-01-07T07:06:04.360Z,-6.64
2023-01-07T07:07:07.987Z,-6.78
2023-01-07T07:08:15.548Z,-6.90
2023-01-07T07:09:20.641Z,-6.80
2023-01-07T07:10:23.695Z,-6.85
2023-01-07T07:11:28.148Z,-6.85
2023-01-07T07:12:31.445Z,-6.87
2023-01-07T07:13:34.952Z,-6.86
2023-01-07T07:14:39.416Z,-6.68
2023-01-07T07:15:41.785Z,-6.60
2023-01-07T07:16:44.417Z,-6.55
2023-01-07T07:17:47.824Z,-6.53
2023-01-07T07:18:51.850Z,-6.59
2023-01-07T07:19:55.143Z,-6.62
2023-01-07T07:20:58.225Z,-6.60
2023-01-07T07:22:03.907Z,-6.65
2023-01-07T07:23:08.761Z,-6.57
2023-01-07T07:24:13.024Z,-6.59
2023-01-07T07:25:17.375Z,-6.37
2023-01-07T07:26:23.372Z,-6.33
2023-01-07T07:27:26.681Z,-6.43
2023-01-07T07:28:29.803Z,-6.38
2023-01-07T07:29:33.375Z,-6.45
2023-01-07T07:30:45.694Z,-6.58
2023-01-07T07:31:43.102Z,-6.43
2023-01-07T07:32:45.972Z,-6.18
2023-01-07T07:33:49.444Z,-5.92
2023-01-07T07:34:54.138Z,-5.82
2023-01-07T07:35:59.211Z,-5.40
2023-01-07T07:37:03.548Z,-5.16
2023-01-07T07:38:06.951Z,-5.07
2023-01-07T07:39:12.025Z,-4.81
2023-01-07T07:40:16.071Z,-4.59
2023-01-07T07:41:21.402Z,-4.48
2023-01-07T07:42:25.485Z,-4.10
2023-01-07T07:43:29.594Z,-3.69
2023-01-07T07:44:32.708Z,-3.50
2023-01-07T07:45:36.710Z,-3.27
2023-01-07T07:46:41.356Z,-3.37
2023-01-07T07:47:44.243Z,-3.14
2023-01-07T07:48:52.576Z,-2.65
2023-01-07T07:49:56.065Z,-2.33
2023-01-07T07:50:59.404Z,-2.41
2023-01-07T07:52:04.841Z,-2.75
2023-01-07T07:53:11.128Z,-3.26
2023-01-07T07:54:14.465Z,-3.45
2023-01-07T07:55:20.550Z,-3.49
2023-01-07T07:56:22.921Z,-3.56
2023-01-07T07:57:26.466Z,-3.73
2023-01-07T07:58:28.787Z,-4.18
2023-01-07T07:59:33.230Z,-4.76
2023-01-07T08:00:37.505Z,-4.58
2023-01-07T08:01:41.041Z,-4.11
2023-01-07T08:02:44.700Z,-4.16
2023-01-07T08:03:47.955Z,-4.07
2023-01-07T08:04:50.203Z,-4.09
2023-01-07T08:05:52.910Z,-3.79
2023-01-07T08:06:56.522Z,-3.65
2023-01-07T08:07:59.932Z,-3.44
2023-01-07T08:09:04.191Z,-2.65
2023-01-07T08:10:07.870Z,-2.42
2023-01-07T08:11:11.330Z,-2.51
2023-01-07T08:12:14.244Z,-3.28
2023-01-07T08:13:18.436Z,-3.86
2023-01-07T08:14:23.617Z,-4.25
2023-01-07T08:15:27.160Z,-5.22
2023-01-07T08:16:29.509Z,-5.52
2023-01-07T08:17:34.955Z,-5.52
2023-01-07T08:18:40.530Z,-5.74
2023-01-07T08:19:43.825Z,-5.93
2023-01-07T08:20:47.924Z,-5.65
2023-01-07T08:21:51.778Z,-5.63
2023-01-07T08:22:54.538Z,-5.51
2023-01-07T08:23:58.032Z,-5.26
2023-01-07T08:25:01.742Z,-5.28
2023-01-07T08:26:05.251Z,-5.06
2023-01-07T08:27:10.451Z,-5.19
2023-01-07T08:28:14.571Z,-5.27
2023-01-07T08:29:17.957Z,-5.23
2023-01-07T08:30:21.351Z,-5.04
2023-01-07T08:31:24.803Z,-5.16
2023-01-07T08:32:28.151Z,-5.11
2023-01-07T08:33:31.796Z,-5.06
2023-01-07T08:34:34.137Z,-5.18
2023-01-07T08:35:38.086Z,-5.50
2023-01-07T08:36:42.338Z,-5.22
2023-01-07T08:37:45.360Z,-5.20
2023-01-07T08:38:50.547Z,-5.12
2023-01-07T08:39:53.937Z,-4.91
2023-01-07T08:40:57.453Z,-4.60
2023-01-07T08:42:00.656Z,-4.72
2023-01-07T08:43:05.297Z,-4.54
2023-01-07T08:44:11.421Z,-4.64
2023-01-07T08:45:14.816Z,-4.51
2023-01-07T08:46:18.264Z,-4.23
2023-01-07T08:47:21.607Z,-4.48
2023-01-07T08:48:24.289Z,-4.43
2023-01-07T08:49:27.583Z,-4.26
2023-01-07T08:50:34.571Z,-4.19
2023-01-07T08:51:38.999Z,-4.14
2023-01-07T08:52:42.590Z,-4.01
2023-01-07T08:53:46.145Z,-4.14
2023-01-07T08:54:50.213Z,-4.15
2023-01-07T08:55:54.137Z,-4.25
2023-01-07T08:56:57.387Z,-4.00
2023-01-07T08:58:00.843Z,-4.16
2023-01-07T08:59:04.027Z,-4.26
2023-01-07T09:00:11.588Z,-4.67
2023-01-07T09:01:14.831Z,-4.66
2023-01-07T09:02:18.319Z,-4.75
2023-01-07T09:03:22.043Z,-4.81
2023-01-07T09:04:25.423Z,-4.74
2023-01-07T09:05:28.607Z,-4.57
2023-01-07T09:06:32.123Z,-4.61
2023-01-07T09:07:37.296Z,-4.85
2023-01-07T09:08:41.329Z,-4.83
2023-01-07T09:09:44.933Z,-4.63
2023-01-07T09:10:47.506Z,-4.54
2023-01-07T09:11:51.692Z,-4.91
2023-01-07T09:12:53.977Z,-4.99
2023-01-07T09:13:58.035Z,-4.94
2023-01-07T09:15:02.279Z,-4.81
2023-01-07T09:16:04.981Z,-4.61
2023-01-07T09:17:08.080Z,-4.73
2023-01-07T09:18:11.730Z,-4.80
2023-01-07T09:19:16.168Z,-4.70
2023-01-07T09:20:19.996Z,-4.78
2023-01-07T09:21:23.381Z,-5.12
2023-01-07T09:22:27.226Z,-5.19
2023-01-07T09:23:30.651Z,-5.35
2023-01-07T09:24:33.899Z,-5.46
2023-01-07T09:25:37.720Z,-5.34
2023-01-07T09:26:41.117Z,-5.19
2023-01-07T09:27:46.219Z,-5.13
2023-01-07T09:28:50.337Z,-5.02
2023-01-07T09:29:54.451Z,-4.98
2023-01-07T09:30:58.272Z,-4.87
2023-01-07T09:32:01.557Z,-5.17
2023-01-07T09:33:07.653Z,-5.09
2023-01-07T09:34:11.086Z,-5.23
2023-01-07T09:35:16.364Z,-5.36
2023-01-07T09:36:19.869Z,-5.26
2023-01-07T09:37:24.107Z,-5.29
2023-01-07T09:38:28.613Z,-5.30
2023-01-07T09:39:32.368Z,-5.26
2023-01-07T09:40:39.010Z,-5.24
2023-01-07T09:42:00.487Z,-5.18
2023-01-07T09:44:20.019Z,-5.46
2023-01-07T09:45:27.002Z,-5.44
2023-01-07T09:46:32.384Z,-5.43
2023-01-07T09:47:37.726Z,-5.44
2023-01-07T09:48:46.492Z,-5.69
2023-01-07T09:49:51.122Z,-5.66
2023-01-07T09:51:03.602Z,-5.72
2023-01-07T09:52:09.936Z,-5.74
2023-01-07T09:53:26.083Z,-5.76
2023-01-07T09:54:31.362Z,-5.86
2023-01-07T09:55:38.204Z,-5.80
2023-01-07T09:56:47.042Z,-5.77
2023-01-07T09:57:50.542Z,-5.83
2023-01-07T09:58:56.453Z,-5.82
2023-01-07T10:00:05.744Z,-5.69
2023-01-07T10:01:28.003Z,-5.48
2023-01-07T10:02:32.272Z,-5.22
2023-01-07T10:03:54.385Z,-4.94
2023-01-07T10:05:02.029Z,-4.99
2023-01-07T10:06:07.303Z,-5.16
2023-01-07T10:07:29.181Z,-5.05
2023-01-07T10:08:47.948Z,-5.17
2023-01-07T10:09:53.237Z,-4.92
2023-01-07T10:10:58.618Z,-4.95
2023-01-07T10:12:05.873Z,-4.92
2023-01-07T10:13:13.966Z,-4.96
2023-01-07T10:14:26.256Z,-4.75
2023-01-07T10:15:40.743Z,-4.82
2023-01-07T10:16:46.889Z,-5.06
2023-01-07T10:17:57.050Z,-4.86
2023-01-07T10:19:08.379Z,-5.02
2023-01-07T10:20:21.061Z,-5.07
2023-01-07T10:21:41.079Z,-5.19
2023-01-07T10:22:56.167Z,-5.12
2023-01-07T10:24:15.672Z,-5.47
2023-01-07T10:25:19.792Z,-5.17
2023-01-07T10:26:26.314Z,-4.81
2023-01-07T10:27:40.075Z,-4.63
2023-01-07T10:28:44.846Z,-4.70
2023-01-07T10:29:55.578Z,-4.78
2023-01-07T10:30:59.671Z,-4.77
2023-01-07T10:32:06.733Z,-4.86
2023-01-07T10:33:28.357Z,-4.88
2023-01-07T10:34:33.742Z,-5.08
2023-01-07T10:35:38.340Z,-5.11
2023-01-07T10:36:46.449Z,-5.16
2023-01-07T10:37:52.607Z,-5.29
2023-01-07T10:39:03.821Z,-5.45
2023-01-07T10:40:14.090Z,-5.20
2023-01-07T10:41:19.669Z,-5.17
2023-01-07T10:42:44.811Z,-5.50
2023-01-07T10:43:50.133Z,-5.47
2023-01-07T10:44:55.056Z,-5.29
2023-01-07T10:46:11.675Z,-5.39
2023-01-07T10:47:23.547Z,-5.63
2023-01-07T10:48:31.249Z,-5.61
2023-01-07T10:49:36.279Z,-5.56
2023-01-07T10:50:41.442Z,-5.69
2023-01-07T10:51:45.926Z,-5.53
2023-01-07T10:53:10.504Z,-5.58
2023-01-07T10:54:15.588Z,-5.55
2023-01-07T10:55:36.151Z,-5.53
2023-01-07T10:56:45.084Z,-5.33
2023-01-07T10:57:49.003Z,-5.25
2023-01-07T10:58:52.388Z,-5.20
2023-01-07T10:59:56.651Z,-4.97
2023-01-07T11:00:59.909Z,-4.81
2023-01-07T11:02:03.159Z,-4.77
2023-01-07T11:03:08.405Z,-5.01
2023-01-07T11:04:15.833Z,-5.04
2023-01-07T11:05:24.127Z,-5.08
2023-01-07T11:06:30.959Z,-5.08
2023-01-07T11:07:47.899Z,-5.06
2023-01-07T11:08:50.936Z,-5.15
2023-01-07T11:09:54.632Z,-5.14
2023-01-07T11:10:58.821Z,-4.91
2023-01-07T11:12:03.618Z,-4.95
2023-01-07T11:13:09.586Z,-4.87
2023-01-07T11:14:14.752Z,-4.63
2023-01-07T11:15:19.019Z,-4.66
2023-01-07T11:16:26.930Z,-4.67
2023-01-07T11:17:35.493Z,-4.58
2023-01-07T11:18:42.329Z,-4.64
2023-01-07T11:19:48.035Z,-4.48
2023-01-07T11:20:56.259Z,-4.43
2023-01-07T11:21:59.509Z,-4.69
2023-01-07T11:23:04.431Z,-4.88
2023-01-07T11:24:18.661Z,-4.79
2023-01-07T11:25:24.464Z,-4.95
2023-01-07T11:26:29.345Z,-4.97
2023-01-07T11:27:33.673Z,-4.79
2023-01-07T11:28:37.450Z,-4.65
2023-01-07T11:29:45.723Z,-4.53
2023-01-07T11:30:59.876Z,-4.59
2023-01-07T11:32:04.242Z,-4.76
2023-01-07T11:33:07.915Z,-4.74
2023-01-07T11:34:20.165Z,-4.88
2023-01-07T11:35:23.633Z,-4.96
2023-01-07T11:36:43.946Z,-4.94
2023-01-07T11:37:47.923Z,-4.93
2023-01-07T11:38:52.633Z,-5.00
2023-01-07T11:39:59.500Z,-4.93
2023-01-07T11:41:04.223Z,-4.86
2023-01-07T11:42:35.694Z,-4.80
2023-01-07T11:43:38.742Z,-4.78
2023-01-07T11:44:42.020Z,-4.72
2023-01-07T11:46:19.185Z,-4.66
2023-01-07T11:47:03.552Z,-4.57
2023-01-07T11:48:11.570Z,-4.72
2023-01-07T11:49:19.342Z,-4.79
2023-01-07T11:50:36.378Z,-4.89
2023-01-07T11:51:47.424Z,-4.97
2023-01-07T11:53:00.005Z,-5.01
2023-01-07T11:54:03.611Z,-4.98
2023-01-07T11:55:07.811Z,-4.97
2023-01-07T11:56:13.716Z,-4.85
2023-01-07T11:57:26.808Z,-4.90
2023-01-07T11:58:37.754Z,-4.93
2023-01-07T11:59:43.704Z,-4.87
2023-01-07T12:00:47.717Z,-4.97
2023-01-07T12:01:53.781Z,-4.78
2023-01-07T12:03:06.657Z,-4.84
2023-01-07T12:04:17.097Z,-4.80
2023-01-07T12:05:24.204Z,-4.84
2023-01-07T12:06:29.114Z,-4.88
2023-01-07T12:07:32.307Z,-5.04
2023-01-07T12:08:35.071Z,-5.10
2023-01-07T12:09:40.852Z,-5.16
2023-01-07T12:10:46.132Z,-5.03
2023-01-07T12:11:53.995Z,-5.03
2023-01-07T12:12:58.280Z,-5.01
2023-01-07T12:14:08.384Z,-5.04
2023-01-07T12:15:24.641Z,-5.02
2023-01-07T12:16:29.156Z,-5.11
2023-01-07T12:17:36.965Z,-4.84
2023-01-07T12:18:44.523Z,-4.83
2023-01-07T12:20:06.819Z,-4.91
2023-01-07T12:21:24.605Z,-4.85
2023-01-07T12:22:29.678Z,-4.92
2023-01-07T12:23:36.447Z,-5.03
2023-01-07T12:24:47.781Z,-5.07
2023-01-07T12:25:52.993Z,-5.08
2023-01-07T12:27:01.146Z,-5.10
2023-01-07T12:28:08.846Z,-5.00
2023-01-07T12:29:12.964Z,-4.96
2023-01-07T12:30:24.117Z,-5.02
2023-01-07T12:31:45.169Z,-5.00
2023-01-07T12:32:53.887Z,-5.01
2023-01-07T12:33:59.055Z,-5.04
2023-01-07T12:35:14.684Z,-5.07
2023-01-07T12:36:14.309Z,-5.03
2023-01-07T12:37:21.372Z,-4.95
2023-01-07T12:38:29.379Z,-4.85
2023-01-07T12:39:37.756Z,-4.78
2023-01-07T12:40:43.750Z,-4.79
2023-01-07T12:41:48.847Z,-5.15
2023-01-07T12:43:01.620Z,-5.42
2023-01-07T12:45:32.259Z,-5.39
2023-01-07T12:46:43.281Z,-5.34
2023-01-07T12:47:50.232Z,-5.11
2023-01-07T12:49:12.961Z,-5.38
2023-01-07T12:50:17.704Z,-5.62
2023-01-07T12:51:22.651Z,-5.66
2023-01-07T12:52:41.975Z,-5.49
2023-01-07T12:53:52.887Z,-5.42
2023-01-07T12:55:06.678Z,-5.47
2023-01-07T12:56:13.578Z,-5.55
2023-01-07T12:57:18.482Z,-5.63
2023-01-07T12:58:39.067Z,-5.54
2023-01-07T12:59:46.964Z,-5.62
2023-01-07T13:00:50.330Z,-5.67
2023-01-07T13:02:11.239Z,-5.61
2023-01-07T13:03:32.668Z,-5.63
2023-01-07T13:04:40.454Z,-5.93
2023-01-07T13:05:45.540Z,-6.06
2023-01-07T13:06:56.502Z,-5.94
2023-01-07T13:08:04.432Z,-5.83
2023-01-07T13:09:10.593Z,-5.89
2023-01-07T13:10:22.887Z,-6.01
2023-01-07T13:11:52.790Z,-5.96
2023-01-07T13:13:01.421Z,-6.07
2023-01-07T13:14:06.775Z,-5.79
2023-01-07T13:15:12.708Z,-5.83
2023-01-07T13:16:14.995Z,-5.99
2023-01-07T13:17:22.058Z,-5.99
2023-01-07T13:18:25.144Z,-6.08
2023-01-07T13:19:28.347Z,-6.16
2023-01-07T13:20:50.028Z,-6.25
2023-01-07T13:21:53.383Z,-6.12
2023-01-07T13:22:57.951Z,-6.10
2023-01-07T13:24:03.121Z,-6.18
2023-01-07T13:25:17.928Z,-6.16
2023-01-07T13:26:38.743Z,-6.14
2023-01-07T13:27:46.585Z,-6.18
2023-01-07T13:28:50.726Z,-6.11
2023-01-07T13:29:55.374Z,-6.11
2023-01-07T13:31:10.056Z,-6.04
2023-01-07T13:32:26.901Z,-6.46
2023-01-07T13:33:48.362Z,-6.44
2023-01-07T13:35:09.191Z,-6.31
2023-01-07T13:36:23.233Z,-6.32
2023-01-07T13:37:33.267Z,-6.30
2023-01-07T13:38:43.907Z,-6.31
2023-01-07T13:39:58.562Z,-6.43
2023-01-07T13:41:03.559Z,-6.49
2023-01-07T13:42:08.070Z,-6.45
2023-01-07T13:43:28.646Z,-6.47
2023-01-07T13:44:51.588Z,-6.38
2023-01-07T13:46:04.841Z,-6.29
2023-01-07T13:47:10.957Z,-6.42
2023-01-07T13:48:17.906Z,-6.48
2023-01-07T13:49:31.687Z,-6.47
2023-01-07T13:50:38.655Z,-6.44
2023-01-07T13:51:42.356Z,-6.62
2023-01-07T13:52:46.862Z,-6.66
2023-01-07T13:53:50.075Z,-6.81
2023-01-07T13:54:58.203Z,-6.94
2023-01-07T13:56:04.576Z,-6.99
2023-01-07T13:57:25.207Z,-7.04
2023-01-07T13:58:32.520Z,-7.06
2023-01-07T13:59:37.473Z,-6.98
2023-01-07T14:00:47.900Z,-6.89
2023-01-07T14:02:11.196Z,-6.99
2023-01-07T14:03:33.553Z,-7.12
2023-01-07T14:04:39.079Z,-7.13
2023-01-07T14:05:42.611Z,-7.10
2023-01-07T14:06:47.681Z,-7.02
2023-01-07T14:08:01.354Z,-7.07
2023-01-07T14:09:12.196Z,-7.08
2023-01-07T14:10:23.856Z,-7.04
2023-01-07T14:11:34.022Z,-6.93
2023-01-07T14:12:40.089Z,-7.10
2023-01-07T14:14:05.394Z,-7.20
2023-01-07T14:15:21.514Z,-7.16
2023-01-07T14:16:26.454Z,-7.17
2023-01-07T14:17:32.730Z,-7.16
2023-01-07T14:18:54.418Z,-6.98
2023-01-07T14:20:04.487Z,-6.96